createdAt,value
2019-05-13T00:00:23.403Z,1.17
2019-05-13T00:02:54.442Z,1.00
2019-05-13T00:05:35.341Z,1.13
2019-05-13T00:08:06.170Z,1.10
2019-05-13T00:10:36.503Z,0.80
2019-05-13T00:13:08.431Z,1.07
2019-05-13T00:15:48.311Z,1.00
2019-05-13T00:18:23.701Z,1.13
2019-05-13T00:20:54.903Z,1.10
2019-05-13T00:23:24.023Z,0.97
2019-05-13T00:25:56.037Z,1.30
2019-05-13T00:28:25.813Z,1.10
2019-05-13T00:30:55.951Z,1.03
2019-05-13T00:33:30.211Z,1.27
2019-05-13T00:36:00.350Z,1.17
2019-05-13T00:38:44.151Z,0.97
2019-05-13T00:41:15.688Z,1.17
2019-05-13T00:43:46.581Z,1.10
2019-05-13T00:46:23.474Z,1.30
2019-05-13T00:48:54.768Z,1.50
2019-05-13T00:51:24.639Z,1.07
2019-05-13T00:53:54.742Z,1.10
2019-05-13T00:56:24.951Z,1.33
2019-05-13T00:58:55.100Z,1.60
2019-05-13T01:01:26.821Z,1.20
2019-05-13T01:04:03.747Z,1.40
2019-05-13T01:06:34.066Z,1.50
2019-05-13T01:09:05.743Z,1.77
2019-05-13T01:11:36.536Z,1.60
2019-05-13T01:14:07.771Z,1.53
2019-05-13T01:16:44.283Z,2.00
2019-05-13T01:19:18.986Z,2.00
2019-05-13T01:21:49.428Z,1.90
2019-05-13T01:24:24.420Z,2.07
2019-05-13T01:26:56.306Z,1.80
2019-05-13T01:29:30.157Z,2.17
2019-05-13T01:31:59.797Z,2.30
2019-05-13T01:34:29.487Z,2.10
2019-05-13T01:36:59.036Z,2.53
2019-05-13T01:39:28.339Z,2.20
2019-05-13T01:42:03.670Z,2.27
2019-05-13T01:44:33.795Z,1.90
2019-05-13T01:47:04.465Z,2.50
2019-05-13T01:49:34.147Z,1.73
2019-05-13T01:52:04.889Z,2.10
2019-05-13T01:54:34.565Z,2.50
2019-05-13T01:57:04.712Z,2.30
2019-05-13T01:59:34.833Z,2.17
2019-05-13T02:02:05.217Z,2.47
2019-05-13T02:04:35.421Z,2.37
2019-05-13T02:07:04.641Z,2.83
2019-05-13T02:09:36.641Z,1.70
2019-05-13T02:12:06.146Z,2.17
2019-05-13T02:14:36.772Z,2.50
2019-05-13T02:17:07.181Z,2.90
2019-05-13T02:19:36.940Z,2.50
2019-05-13T02:22:07.005Z,2.20
2019-05-13T02:24:36.763Z,2.50
2019-05-13T02:27:08.337Z,2.80
2019-05-13T02:29:38.794Z,2.63
2019-05-13T02:32:08.004Z,2.27
2019-05-13T02:34:37.782Z,3.00
2019-05-13T02:37:07.690Z,2.77
2019-05-13T02:39:48.709Z,2.47
2019-05-13T02:42:22.832Z,2.67
2019-05-13T02:44:52.960Z,2.70
2019-05-13T02:47:23.305Z,2.87
2019-05-13T02:49:54.359Z,2.83
2019-05-13T02:52:25.564Z,2.90
2019-05-13T02:54:55.533Z,2.77
2019-05-13T02:57:24.611Z,2.73
2019-05-13T02:59:53.935Z,2.87
2019-05-13T03:02:23.234Z,2.50
2019-05-13T03:04:53.552Z,2.40
2019-05-13T03:07:25.651Z,2.80
2019-05-13T03:09:55.353Z,2.97
2019-05-13T03:12:25.091Z,2.70
2019-05-13T03:14:54.562Z,2.67
2019-05-13T03:17:32.393Z,2.97
2019-05-13T03:20:04.117Z,2.80
2019-05-13T03:22:34.170Z,3.07
2019-05-13T03:25:03.947Z,3.03
2019-05-13T03:27:34.119Z,3.40
2019-05-13T03:30:04.471Z,3.20
2019-05-13T03:32:42.945Z,3.20
2019-05-13T03:35:08.278Z,3.70
2019-05-13T03:37:42.102Z,2.87
2019-05-13T03:40:13.357Z,3.10
2019-05-13T03:42:46.135Z,4.33
2019-05-13T03:45:15.963Z,4.37
2019-05-13T03:47:52.916Z,3.57
2019-05-13T03:50:22.686Z,3.60
2019-05-13T03:52:53.469Z,3.57
2019-05-13T03:55:23.881Z,3.77
2019-05-13T03:57:54.657Z,3.70
2019-05-13T04:00:24.583Z,3.27
2019-05-13T04:02:54.865Z,3.40
2019-05-13T04:05:27.813Z,2.93
2019-05-13T04:07:58.820Z,3.13
2019-05-13T04:10:33.388Z,3.17
2019-05-13T04:13:03.779Z,3.23
2019-05-13T04:15:34.122Z,3.10
2019-05-13T04:18:03.536Z,2.93
2019-05-13T04:20:42.616Z,3.17
2019-05-13T04:23:19.120Z,3.40
2019-05-13T04:25:53.727Z,3.37
2019-05-13T04:28:22.358Z,4.10
2019-05-13T04:30:53.977Z,3.90
2019-05-13T04:33:26.129Z,4.07
2019-05-13T04:35:58.172Z,3.70
2019-05-13T04:38:32.990Z,3.63
2019-05-13T04:41:04.090Z,3.83
2019-05-13T04:43:42.967Z,3.60
2019-05-13T04:46:14.105Z,4.03
2019-05-13T04:48:44.057Z,4.13
2019-05-13T04:51:14.658Z,3.97
2019-05-13T04:53:47.259Z,3.70
2019-05-13T04:56:22.400Z,3.43
2019-05-13T04:58:53.061Z,3.73
2019-05-13T05:02:13.265Z,4.17
2019-05-13T05:04:59.302Z,3.73
2019-05-13T05:08:11.806Z,3.40
2019-05-13T05:11:52.958Z,3.70
2019-05-13T05:14:41.800Z,3.37
2019-05-13T05:17:46.500Z,4.00
2019-05-13T05:20:46.518Z,3.90
2019-05-13T05:23:53.424Z,8.70
2019-05-13T05:27:07.296Z,3.17
2019-05-13T05:30:11.103Z,3.40
2019-05-13T05:33:31.910Z,3.10
2019-05-13T05:36:36.808Z,3.20
2019-05-13T05:39:22.760Z,3.40
2019-05-13T05:41:57.303Z,3.40
2019-05-13T05:44:35.941Z,3.23
2019-05-13T05:47:16.486Z,3.63
2019-05-13T05:50:13.241Z,3.00
2019-05-13T05:52:51.451Z,3.00
2019-05-13T05:58:49.506Z,2.93
2019-05-13T06:01:37.433Z,3.70
2019-05-13T06:04:52.097Z,3.23
2019-05-13T06:07:36.967Z,3.03
2019-05-13T06:10:17.079Z,2.70
2019-05-13T06:12:56.753Z,2.50
2019-05-13T06:15:35.169Z,2.80
2019-05-13T06:18:11.709Z,3.07
2019-05-13T06:20:55.994Z,3.07
2019-05-13T06:23:31.263Z,2.33
2019-05-13T06:26:35.279Z,2.60
2019-05-13T06:31:57.184Z,2.80
2019-05-13T06:50:23.268Z,2.53
2019-05-13T07:04:55.426Z,1.70
2019-05-13T07:26:12.691Z,2.10
2019-05-13T07:46:13.380Z,1.70
2019-05-13T07:53:05.472Z,1.57
2019-05-13T07:56:12.635Z,1.30
2019-05-13T08:02:37.846Z,1.27
2019-05-13T08:06:22.058Z,1.10
2019-05-13T08:10:00.922Z,1.40
2019-05-13T08:13:44.815Z,1.73
2019-05-13T09:54:34.390Z,1.20
2019-05-13T10:04:53.173Z,1.70
2019-05-13T10:07:23.108Z,1.80
2019-05-13T11:29:02.633Z,2.00
2019-05-13T11:32:23.456Z,1.87
2019-05-13T11:35:16.147Z,1.20
2019-05-13T11:38:12.058Z,1.30
2019-05-13T11:41:42.699Z,0.90
2019-05-13T11:48:02.630Z,1.37
2019-05-13T11:51:09.176Z,1.40
2019-05-13T11:54:14.269Z,1.33
2019-05-13T11:59:46.449Z,1.37
2019-05-13T12:02:50.949Z,0.97
2019-05-13T12:05:26.116Z,2.70
2019-05-13T12:08:50.970Z,1.07
2019-05-13T12:19:03.451Z,1.10
2019-05-13T12:32:51.908Z,1.10
2019-05-13T12:35:53.785Z,1.00
2019-05-13T12:56:08.324Z,0.87
2019-05-13T13:11:12.629Z,0.80
2019-05-13T13:14:57.086Z,1.00
2019-05-13T13:47:03.677Z,0.87
2019-05-13T13:53:44.645Z,1.00
2019-05-13T13:57:03.688Z,0.60
2019-05-13T14:00:32.967Z,1.30
2019-05-13T14:03:21.029Z,1.40
2019-05-13T14:07:02.788Z,0.80
2019-05-13T14:07:34.461Z,1.30
2019-05-13T15:12:06.765Z,0.67
2019-05-13T15:14:55.815Z,0.50
2019-05-13T15:17:52.104Z,0.80
2019-05-13T15:20:22.660Z,0.90
2019-05-13T15:23:03.390Z,0.50
2019-05-13T15:25:35.082Z,0.83
2019-05-13T15:28:32.219Z,0.90
2019-05-13T15:30:54.019Z,1.07
2019-05-13T15:33:25.763Z,0.70
2019-05-13T15:35:57.518Z,0.90
2019-05-13T15:38:41.444Z,0.70
2019-05-13T15:41:15.718Z,1.27
2019-05-13T15:43:44.578Z,0.63
2019-05-13T15:46:14.914Z,0.80
2019-05-13T15:48:44.801Z,0.80
2019-05-13T15:51:22.143Z,2.67
2019-05-13T15:54:15.538Z,1.00
2019-05-13T15:56:49.683Z,0.77
2019-05-13T15:59:21.603Z,1.07
2019-05-13T16:01:55.370Z,0.80
2019-05-13T16:04:48.789Z,0.70
2019-05-13T16:07:15.262Z,0.93
2019-05-13T16:09:52.640Z,1.10
2019-05-13T16:12:26.617Z,0.83
2019-05-13T16:15:01.730Z,0.80
2019-05-13T16:17:41.244Z,0.90
2019-05-13T16:20:16.603Z,1.70
2019-05-13T16:22:48.771Z,0.97
2019-05-13T16:25:24.432Z,1.40
2019-05-13T16:28:01.531Z,0.83
2019-05-13T16:30:52.246Z,1.10
2019-05-13T16:33:41.755Z,1.03
2019-05-13T16:39:02.589Z,1.30
2019-05-13T16:41:38.683Z,0.90
2019-05-13T16:44:12.706Z,1.00
2019-05-13T16:47:01.849Z,0.70
2019-05-13T16:49:41.306Z,0.97
2019-05-13T16:52:18.692Z,1.10
2019-05-13T16:54:53.609Z,0.90
2019-05-13T17:00:51.616Z,1.20
2019-05-13T17:03:31.926Z,0.60
2019-05-13T17:06:29.374Z,2.07
2019-05-13T17:09:15.887Z,1.60
2019-05-13T17:23:03.694Z,1.10
2019-05-13T17:32:51.614Z,1.13
2019-05-13T17:35:22.894Z,1.20
2019-05-13T17:37:51.998Z,1.00
2019-05-13T17:40:22.519Z,1.10
2019-05-13T17:43:21.364Z,1.00
2019-05-13T17:45:53.800Z,0.80
2019-05-13T17:48:53.418Z,2.10
2019-05-13T17:55:33.946Z,0.73
2019-05-13T18:58:25.361Z,0.77
2019-05-13T19:01:01.343Z,0.90
2019-05-13T19:07:25.741Z,0.93
2019-05-13T19:10:05.305Z,0.93
2019-05-13T20:07:52.295Z,1.20
2019-05-13T20:10:22.703Z,0.90
2019-05-13T20:13:01.709Z,0.90
2019-05-13T20:15:41.336Z,0.80
2019-05-13T20:34:08.733Z,1.13
2019-05-13T20:36:44.339Z,1.10
2019-05-13T20:39:17.372Z,1.47
2019-05-13T20:41:55.856Z,1.00
2019-05-13T20:44:24.569Z,1.10
2019-05-13T20:46:56.013Z,1.10
2019-05-13T20:49:31.012Z,1.20
2019-05-13T20:52:08.366Z,1.00
2019-05-13T20:54:41.710Z,1.10
2019-05-13T20:57:15.842Z,1.20
2019-05-13T20:59:46.558Z,1.20
2019-05-13T21:02:23.071Z,1.67
2019-05-13T21:04:56.366Z,1.40
2019-05-13T21:07:28.713Z,1.23
2019-05-13T21:09:58.939Z,1.30
2019-05-13T21:12:31.375Z,1.30
2019-05-13T21:15:04.522Z,1.10
2019-05-13T21:17:35.172Z,1.20
2019-05-13T21:23:52.231Z,1.30
2019-05-13T21:26:22.482Z,1.30
2019-05-13T21:28:53.863Z,1.30
2019-05-13T21:31:25.753Z,1.50
2019-05-13T21:33:57.159Z,1.30
2019-05-13T21:36:27.809Z,1.77
2019-05-13T21:38:57.598Z,1.13
2019-05-13T21:41:32.633Z,1.33
2019-05-13T21:44:12.696Z,1.40
2019-05-13T21:46:45.966Z,2.03
2019-05-13T21:49:22.073Z,1.40
2019-05-13T21:51:49.466Z,1.30
2019-05-13T21:54:20.831Z,1.30
2019-05-13T21:56:52.652Z,1.37
2019-05-13T21:59:28.085Z,1.20
2019-05-13T22:02:13.767Z,1.27
2019-05-13T22:04:43.622Z,1.20
2019-05-13T22:07:13.089Z,1.30
2019-05-13T22:33:13.681Z,1.13
2019-05-13T22:39:52.639Z,1.50
2019-05-13T22:42:28.303Z,1.40
2019-05-13T22:48:02.608Z,1.73
2019-05-13T22:50:45.263Z,1.40
2019-05-13T22:53:52.317Z,1.53
2019-05-13T22:59:56.193Z,1.50
2019-05-13T23:03:16.474Z,1.57
2019-05-13T23:17:34.879Z,1.33
2019-05-13T23:38:41.397Z,1.03
2019-05-13T23:41:52.598Z,1.30
2019-05-13T23:45:27.445Z,1.20
2019-05-13T23:49:01.513Z,1.30
